createdAt,value
2018-07-17T00:00:08.636Z,23.09
2018-07-17T00:02:37.874Z,23.05
2018-07-17T00:05:08.227Z,23.00
2018-07-17T00:07:37.579Z,22.97
2018-07-17T00:10:06.782Z,22.90
2018-07-17T00:12:36.095Z,22.79
2018-07-17T00:15:05.176Z,22.80
2018-07-17T00:17:34.392Z,22.82
2018-07-17T00:20:03.613Z,22.78
2018-07-17T00:22:32.848Z,22.74
2018-07-17T00:25:02.050Z,22.70
2018-07-17T00:27:31.073Z,22.68
2018-07-17T00:30:00.298Z,22.64
2018-07-17T00:32:29.328Z,22.60
2018-07-17T00:34:58.170Z,22.64
2018-07-17T00:37:27.417Z,22.71
2018-07-17T00:39:56.583Z,22.78
2018-07-17T00:42:25.824Z,22.81
2018-07-17T00:44:54.874Z,22.83
2018-07-17T00:47:24.053Z,22.84
2018-07-17T00:49:52.789Z,22.75
2018-07-17T00:52:21.765Z,22.81
2018-07-17T00:54:50.786Z,22.89
2018-07-17T00:57:19.916Z,22.92
2018-07-17T00:59:49.178Z,22.99
2018-07-17T01:02:23.410Z,22.94
2018-07-17T01:04:57.488Z,22.95
2018-07-17T01:07:31.415Z,23.19
2018-07-17T01:10:05.612Z,23.23
2018-07-17T01:12:33.699Z,23.04
2018-07-17T01:15:08.999Z,23.05
2018-07-17T01:17:37.985Z,23.01
2018-07-17T01:20:07.171Z,23.09
2018-07-17T01:22:36.302Z,23.25
2018-07-17T01:25:05.184Z,22.95
2018-07-17T01:27:34.242Z,22.89
2018-07-17T01:30:03.537Z,23.05
2018-07-17T01:32:32.584Z,23.26
2018-07-17T01:35:01.772Z,23.24
2018-07-17T01:37:30.829Z,23.11
2018-07-17T01:40:00.709Z,23.20
2018-07-17T01:42:29.703Z,23.24
2018-07-17T01:44:58.767Z,23.18
2018-07-17T01:47:27.929Z,23.07
2018-07-17T01:49:56.957Z,23.01
2018-07-17T01:52:25.726Z,22.92
2018-07-17T01:54:54.733Z,22.93
2018-07-17T01:57:23.870Z,23.01
2018-07-17T01:59:52.979Z,22.98
2018-07-17T02:02:22.138Z,22.88
2018-07-17T02:04:51.266Z,22.81
2018-07-17T02:07:20.320Z,22.72
2018-07-17T02:09:49.499Z,22.71
2018-07-17T02:12:18.607Z,22.72
2018-07-17T02:14:47.642Z,22.58
2018-07-17T02:17:16.957Z,22.66
2018-07-17T02:19:46.091Z,22.67
2018-07-17T02:22:15.231Z,22.52
2018-07-17T02:24:44.276Z,22.65
2018-07-17T02:27:13.031Z,22.61
2018-07-17T02:29:42.016Z,22.49
2018-07-17T02:32:11.050Z,22.44
2018-07-17T02:34:40.338Z,22.48
2018-07-17T02:37:09.447Z,22.38
2018-07-17T02:39:38.589Z,22.40
2018-07-17T02:42:07.843Z,22.38
2018-07-17T02:44:36.912Z,22.22
2018-07-17T02:47:05.851Z,22.27
2018-07-17T02:49:35.143Z,22.44
2018-07-17T02:52:04.272Z,22.30
2018-07-17T02:54:33.486Z,22.37
2018-07-17T02:57:02.468Z,22.30
2018-07-17T02:59:31.487Z,22.38
2018-07-17T03:02:00.600Z,22.33
2018-07-17T03:04:29.431Z,22.28
2018-07-17T03:06:58.581Z,22.30
2018-07-17T03:09:27.894Z,22.41
2018-07-17T03:11:56.637Z,22.36
2018-07-17T03:14:25.639Z,22.42
2018-07-17T03:16:54.540Z,22.35
2018-07-17T03:19:23.819Z,22.32
2018-07-17T03:21:52.986Z,22.37
2018-07-17T03:24:21.963Z,22.24
2018-07-17T03:26:50.983Z,22.03
2018-07-17T03:29:20.119Z,21.83
2018-07-17T03:31:48.803Z,22.04
2018-07-17T03:34:17.906Z,21.91
2018-07-17T03:36:47.026Z,22.03
2018-07-17T03:39:16.166Z,22.09
2018-07-17T03:41:45.423Z,22.04
2018-07-17T03:44:14.524Z,22.02
2018-07-17T03:46:43.656Z,22.07
2018-07-17T03:49:12.918Z,22.20
2018-07-17T03:51:41.825Z,21.84
2018-07-17T03:54:10.941Z,22.00
2018-07-17T03:56:40.194Z,22.20
2018-07-17T03:59:09.338Z,22.09
2018-07-17T04:01:38.563Z,22.13
2018-07-17T04:04:07.587Z,22.29
2018-07-17T04:06:36.523Z,22.25
2018-07-17T04:09:06.772Z,22.17
2018-07-17T04:11:35.958Z,22.35
2018-07-17T04:14:05.483Z,22.31
2018-07-17T04:16:34.346Z,22.10
2018-07-17T04:19:03.428Z,22.19
2018-07-17T04:21:32.659Z,22.36
2018-07-17T04:24:01.863Z,22.27
2018-07-17T04:26:30.910Z,22.33
2018-07-17T04:28:59.992Z,22.52
2018-07-17T04:31:29.103Z,22.59
2018-07-17T04:33:58.246Z,22.57
2018-07-17T04:36:27.299Z,22.69
2018-07-17T04:38:56.426Z,22.84
2018-07-17T04:41:25.386Z,22.98
2018-07-17T04:43:54.419Z,23.11
2018-07-17T04:46:23.705Z,23.24
2018-07-17T04:48:52.628Z,23.34
2018-07-17T04:51:21.665Z,23.43
2018-07-17T04:53:50.984Z,23.58
2018-07-17T04:56:19.834Z,23.65
2018-07-17T04:58:49.026Z,23.73
2018-07-17T05:01:18.178Z,23.75
2018-07-17T05:03:47.072Z,23.94
2018-07-17T05:06:16.383Z,24.06
2018-07-17T05:08:45.511Z,24.20
2018-07-17T05:11:14.401Z,24.16
2018-07-17T05:13:43.446Z,24.28
2018-07-17T05:16:12.314Z,24.32
2018-07-17T05:18:41.202Z,24.43
2018-07-17T05:21:10.057Z,24.46
2018-07-17T05:23:39.307Z,24.56
2018-07-17T05:26:08.460Z,24.50
2018-07-17T05:28:37.793Z,24.55
2018-07-17T05:31:07.049Z,24.63
2018-07-17T05:33:36.332Z,24.68
2018-07-17T05:36:05.448Z,24.66
2018-07-17T05:38:34.706Z,24.71
2018-07-17T05:41:03.843Z,24.75
2018-07-17T05:43:33.074Z,24.82
2018-07-17T05:46:02.182Z,24.82
2018-07-17T05:48:31.314Z,24.78
2018-07-17T05:51:00.269Z,24.82
2018-07-17T05:53:29.564Z,24.85
2018-07-17T05:55:58.654Z,24.88
2018-07-17T05:58:27.868Z,24.79
2018-07-17T06:00:56.895Z,24.88
2018-07-17T06:03:25.724Z,25.01
2018-07-17T06:05:54.870Z,24.81
2018-07-17T06:08:24.018Z,24.99
2018-07-17T06:10:53.110Z,25.07
2018-07-17T06:13:22.168Z,25.16
2018-07-17T06:15:51.423Z,25.26
2018-07-17T06:18:21.317Z,25.38
2018-07-17T06:20:50.463Z,25.42
2018-07-17T06:23:19.746Z,25.56
2018-07-17T06:25:48.762Z,25.61
2018-07-17T06:28:18.046Z,25.54
2018-07-17T06:30:47.002Z,25.60
2018-07-17T06:33:16.136Z,25.73
2018-07-17T06:35:45.435Z,25.86
2018-07-17T06:38:14.657Z,25.95
2018-07-17T06:40:43.474Z,26.01
2018-07-17T06:43:12.564Z,26.18
2018-07-17T06:45:41.958Z,26.26
2018-07-17T06:48:10.842Z,26.34
2018-07-17T06:50:40.063Z,26.43
2018-07-17T06:53:09.780Z,26.51
2018-07-17T06:55:39.030Z,26.56
2018-07-17T06:58:08.122Z,26.61
2018-07-17T07:00:37.202Z,26.62
2018-07-17T07:03:06.155Z,26.65
2018-07-17T07:05:35.019Z,26.75
2018-07-17T07:08:04.330Z,26.81
2018-07-17T07:10:33.475Z,26.86
2018-07-17T07:13:02.647Z,26.96
2018-07-17T07:15:31.338Z,27.13
2018-07-17T07:18:00.488Z,27.32
2018-07-17T07:20:29.661Z,27.54
2018-07-17T07:22:58.814Z,27.82
2018-07-17T07:25:27.980Z,27.85
2018-07-17T07:27:57.136Z,27.75
2018-07-17T07:30:26.250Z,28.01
2018-07-17T07:32:55.147Z,28.30
2018-07-17T07:35:24.338Z,28.52
2018-07-17T07:37:53.580Z,28.68
2018-07-17T07:40:22.795Z,28.76
2018-07-17T07:42:51.981Z,28.61
2018-07-17T07:45:21.155Z,28.52
2018-07-17T07:47:50.289Z,28.60
2018-07-17T07:50:19.299Z,28.82
2018-07-17T07:52:48.621Z,28.87
2018-07-17T07:55:17.894Z,28.97
2018-07-17T07:57:47.405Z,28.99
2018-07-17T08:00:16.600Z,28.93
2018-07-17T08:02:45.614Z,28.83
2018-07-17T08:05:14.779Z,28.80
2018-07-17T08:07:43.888Z,28.79
2018-07-17T08:10:13.086Z,28.79
2018-07-17T08:12:42.268Z,28.75
2018-07-17T08:15:11.515Z,28.79
2018-07-17T08:17:40.631Z,28.74
2018-07-17T08:20:09.903Z,28.70
2018-07-17T08:22:39.062Z,28.73
2018-07-17T08:25:08.051Z,28.87
2018-07-17T08:27:37.147Z,29.12
2018-07-17T08:30:06.320Z,29.15
2018-07-17T08:32:35.147Z,29.05
2018-07-17T08:35:04.394Z,29.10
2018-07-17T08:37:33.503Z,29.29
2018-07-17T08:40:02.855Z,29.39
2018-07-17T08:42:31.654Z,29.58
2018-07-17T08:45:00.724Z,29.77
2018-07-17T08:47:29.600Z,29.70
2018-07-17T08:49:58.515Z,29.67
2018-07-17T08:52:27.506Z,29.66
2018-07-17T08:54:56.668Z,29.68
2018-07-17T08:57:25.449Z,29.83
2018-07-17T08:59:54.478Z,29.94
2018-07-17T09:02:23.792Z,30.03
2018-07-17T09:04:52.992Z,30.15
2018-07-17T09:07:22.218Z,30.24
2018-07-17T09:09:51.390Z,30.14
2018-07-17T09:12:20.631Z,29.96
2018-07-17T09:14:49.570Z,29.60
2018-07-17T09:17:18.474Z,29.25
2018-07-17T09:19:47.479Z,28.96
2018-07-17T09:22:16.568Z,28.52
2018-07-17T09:24:45.650Z,27.86
2018-07-17T09:27:14.900Z,27.43
2018-07-17T09:29:44.143Z,27.18
2018-07-17T09:32:13.198Z,26.80
2018-07-17T09:34:42.375Z,26.43
2018-07-17T09:37:11.467Z,26.06
2018-07-17T09:39:40.533Z,25.69
2018-07-17T09:42:09.451Z,25.27
2018-07-17T09:44:38.550Z,24.99
2018-07-17T09:47:08.003Z,24.65
2018-07-17T09:49:37.152Z,24.44
2018-07-17T09:52:06.386Z,24.35
2018-07-17T09:54:35.498Z,24.07
2018-07-17T09:57:04.603Z,23.60
2018-07-17T09:59:33.684Z,22.96
2018-07-17T10:02:07.780Z,22.37
2018-07-17T10:04:36.606Z,22.18
2018-07-17T10:07:05.661Z,22.06
2018-07-17T10:09:34.942Z,21.95
2018-07-17T10:12:04.959Z,21.97
2018-07-17T10:14:34.006Z,21.99
2018-07-17T10:17:02.783Z,22.09
2018-07-17T10:19:31.848Z,22.31
2018-07-17T10:22:00.959Z,22.70
2018-07-17T10:24:30.032Z,23.15
2018-07-17T10:26:59.194Z,23.86
2018-07-17T10:29:28.462Z,24.86
2018-07-17T10:31:57.538Z,26.34
2018-07-17T10:34:26.469Z,27.82
2018-07-17T10:36:55.684Z,29.18
2018-07-17T10:39:25.036Z,28.94
2018-07-17T10:41:54.170Z,27.91
2018-07-17T10:44:23.262Z,27.05
2018-07-17T10:46:52.406Z,26.66
2018-07-17T10:49:21.161Z,26.52
2018-07-17T10:51:50.118Z,26.51
2018-07-17T10:54:19.248Z,26.40
2018-07-17T10:56:48.450Z,26.82
2018-07-17T10:59:17.478Z,27.38
2018-07-17T11:01:46.462Z,27.53
2018-07-17T11:04:15.734Z,27.87
2018-07-17T11:06:44.898Z,28.27
2018-07-17T11:09:14.056Z,29.11
2018-07-17T11:11:43.183Z,29.70
2018-07-17T11:14:12.051Z,30.43
2018-07-17T11:16:41.005Z,30.64
2018-07-17T11:19:10.141Z,30.27
2018-07-17T11:21:39.363Z,30.17
2018-07-17T11:24:08.376Z,30.42
2018-07-17T11:26:37.242Z,31.34
2018-07-17T11:29:06.463Z,32.68
2018-07-17T11:31:35.552Z,33.84
2018-07-17T11:34:04.738Z,34.38
2018-07-17T11:36:33.873Z,35.28
2018-07-17T11:39:02.816Z,36.55
2018-07-17T11:41:31.974Z,35.90
2018-07-17T11:44:01.160Z,36.58
2018-07-17T11:46:29.982Z,37.69
2018-07-17T11:48:59.127Z,38.66
2018-07-17T11:51:28.282Z,39.50
2018-07-17T11:53:57.212Z,40.25
2018-07-17T11:56:26.432Z,40.78
2018-07-17T11:58:55.381Z,41.29
2018-07-17T12:01:24.559Z,41.68
2018-07-17T12:03:53.512Z,42.03
2018-07-17T12:06:22.694Z,42.51
2018-07-17T12:08:51.797Z,42.56
2018-07-17T12:11:20.544Z,42.69
2018-07-17T12:13:49.728Z,41.73
2018-07-17T12:16:18.638Z,41.20
2018-07-17T12:18:47.567Z,41.56
2018-07-17T12:21:16.677Z,42.02
2018-07-17T12:23:45.702Z,41.86
2018-07-17T12:26:14.957Z,42.09
2018-07-17T12:28:44.035Z,42.64
2018-07-17T12:31:13.222Z,41.85
2018-07-17T12:33:42.504Z,41.53
2018-07-17T12:36:11.835Z,40.57
2018-07-17T12:38:41.116Z,40.47
2018-07-17T12:41:10.119Z,40.88
2018-07-17T12:43:39.150Z,41.15
2018-07-17T12:46:08.212Z,40.81
2018-07-17T12:48:37.507Z,39.71
2018-07-17T12:51:06.493Z,39.41
2018-07-17T12:53:35.294Z,39.22
2018-07-17T12:56:04.456Z,38.29
2018-07-17T12:58:33.641Z,37.83
2018-07-17T13:01:03.018Z,38.06
2018-07-17T13:03:32.294Z,37.43
2018-07-17T13:06:01.472Z,37.55
2018-07-17T13:08:30.673Z,38.38
2018-07-17T13:11:00.338Z,38.68
2018-07-17T13:13:29.496Z,39.53
2018-07-17T13:15:58.398Z,39.89
2018-07-17T13:18:27.558Z,40.34
2018-07-17T13:20:56.851Z,40.02
2018-07-17T13:23:25.958Z,40.19
2018-07-17T13:25:54.932Z,39.93
2018-07-17T13:28:23.895Z,39.39
2018-07-17T13:30:53.074Z,38.74
2018-07-17T13:33:22.274Z,37.89
2018-07-17T13:35:51.503Z,37.20
2018-07-17T13:38:20.201Z,36.38
2018-07-17T13:40:49.058Z,35.15
2018-07-17T13:43:17.815Z,33.74
2018-07-17T13:45:47.014Z,32.77
2018-07-17T13:48:16.059Z,31.92
2018-07-17T13:50:44.859Z,31.18
2018-07-17T13:53:14.107Z,30.84
2018-07-17T13:55:42.943Z,30.30
2018-07-17T13:58:11.990Z,29.90
2018-07-17T14:00:41.073Z,29.71
2018-07-17T14:03:10.239Z,29.62
2018-07-17T14:05:39.382Z,29.25
2018-07-17T14:08:08.750Z,29.20
2018-07-17T14:10:37.571Z,29.27
2018-07-17T14:13:06.486Z,29.42
2018-07-17T14:15:35.867Z,29.61
2018-07-17T14:18:05.107Z,30.03
2018-07-17T14:20:34.298Z,30.41
2018-07-17T14:23:03.124Z,30.86
2018-07-17T14:25:32.203Z,31.23
2018-07-17T14:28:01.425Z,31.40
2018-07-17T14:30:30.402Z,31.43
2018-07-17T14:32:59.573Z,31.40
2018-07-17T14:35:28.441Z,31.35
2018-07-17T14:37:57.555Z,31.37
2018-07-17T14:40:26.738Z,31.39
2018-07-17T14:42:55.804Z,31.53
2018-07-17T14:45:25.363Z,31.74
2018-07-17T14:47:54.290Z,31.59
2018-07-17T14:50:23.444Z,31.31
2018-07-17T14:52:52.571Z,30.99
2018-07-17T14:55:21.845Z,30.77
2018-07-17T14:57:50.991Z,30.76
2018-07-17T15:00:19.862Z,30.94
2018-07-17T15:02:48.699Z,31.00
2018-07-17T15:05:17.764Z,30.83
2018-07-17T15:07:46.817Z,30.45
2018-07-17T15:10:16.026Z,30.25
2018-07-17T15:12:45.143Z,30.23
2018-07-17T15:15:14.351Z,30.10
2018-07-17T15:17:43.663Z,29.94
2018-07-17T15:20:12.406Z,29.83
2018-07-17T15:22:41.350Z,29.66
2018-07-17T15:25:10.374Z,29.69
2018-07-17T15:27:39.451Z,29.75
2018-07-17T15:30:08.579Z,29.91
2018-07-17T15:32:37.796Z,30.09
2018-07-17T15:35:06.971Z,29.99
2018-07-17T15:37:35.703Z,29.78
2018-07-17T15:40:05.330Z,29.71
2018-07-17T15:42:34.557Z,29.69
2018-07-17T15:45:03.856Z,29.66
2018-07-17T15:47:33.009Z,29.54
2018-07-17T15:50:01.940Z,29.42
2018-07-17T15:52:31.076Z,29.42
2018-07-17T15:54:59.895Z,29.34
2018-07-17T15:57:29.158Z,29.36
2018-07-17T15:59:58.261Z,29.37
2018-07-17T16:02:27.506Z,29.40
2018-07-17T16:04:56.805Z,29.41
2018-07-17T16:07:25.483Z,29.35
2018-07-17T16:09:54.502Z,29.19
2018-07-17T16:12:23.531Z,29.16
2018-07-17T16:14:52.815Z,29.04
2018-07-17T16:17:21.571Z,28.96
2018-07-17T16:19:50.663Z,28.90
2018-07-17T16:22:19.808Z,28.84
2018-07-17T16:24:48.977Z,28.82
2018-07-17T16:27:18.243Z,28.68
2018-07-17T16:29:47.354Z,28.71
2018-07-17T16:32:16.539Z,28.84
2018-07-17T16:34:45.735Z,28.87
2018-07-17T16:37:14.978Z,29.06
2018-07-17T16:39:43.883Z,28.90
2018-07-17T16:42:13.045Z,28.80
2018-07-17T16:44:41.866Z,28.73
2018-07-17T16:47:10.840Z,28.64
2018-07-17T16:49:39.856Z,28.55
2018-07-17T16:52:09.135Z,28.44
2018-07-17T16:54:38.377Z,28.37
2018-07-17T16:57:07.663Z,28.28
2018-07-17T16:59:36.942Z,28.19
2018-07-17T17:02:06.099Z,28.05
2018-07-17T17:04:35.329Z,27.97
2018-07-17T17:07:04.270Z,27.88
2018-07-17T17:09:33.616Z,27.82
2018-07-17T17:12:02.635Z,27.77
2018-07-17T17:14:31.747Z,27.72
2018-07-17T17:17:00.904Z,27.66
2018-07-17T17:19:30.182Z,27.63
2018-07-17T17:21:59.028Z,27.65
2018-07-17T17:24:28.497Z,27.62
2018-07-17T17:26:57.580Z,27.58
2018-07-17T17:29:26.785Z,27.56
2018-07-17T17:31:55.523Z,27.58
2018-07-17T17:34:24.600Z,27.59
2018-07-17T17:36:53.868Z,27.54
2018-07-17T17:39:23.028Z,27.50
2018-07-17T17:41:52.070Z,27.48
2018-07-17T17:44:21.246Z,27.35
2018-07-17T17:46:50.302Z,27.34
2018-07-17T17:49:19.440Z,27.29
2018-07-17T17:51:48.665Z,27.41
2018-07-17T17:54:17.410Z,27.40
2018-07-17T17:56:46.469Z,27.31
2018-07-17T17:59:15.502Z,27.22
2018-07-17T18:01:44.680Z,27.13
2018-07-17T18:04:13.815Z,27.03
2018-07-17T18:06:42.990Z,26.96
2018-07-17T18:09:12.207Z,26.89
2018-07-17T18:11:41.531Z,26.92
2018-07-17T18:14:10.342Z,26.93
2018-07-17T18:16:39.428Z,26.84
2018-07-17T18:19:08.478Z,26.79
2018-07-17T18:21:37.596Z,26.74
2018-07-17T18:24:06.932Z,26.83
2018-07-17T18:26:36.571Z,26.79
2018-07-17T18:29:06.689Z,26.74
2018-07-17T18:31:35.517Z,26.82
2018-07-17T18:34:04.614Z,26.90
2018-07-17T18:36:33.800Z,26.65
2018-07-17T18:39:03.228Z,26.75
2018-07-17T18:41:32.329Z,26.82
2018-07-17T18:44:01.532Z,26.85
2018-07-17T18:46:30.610Z,26.75
2018-07-17T18:48:59.447Z,26.73
2018-07-17T18:51:28.443Z,26.79
2018-07-17T18:53:57.707Z,26.78
2018-07-17T18:56:26.986Z,26.81
2018-07-17T18:58:56.307Z,26.78
2018-07-17T19:01:25.897Z,26.79
2018-07-17T19:03:55.231Z,26.76
2018-07-17T19:06:24.434Z,26.76
2018-07-17T19:08:53.430Z,26.73
2018-07-17T19:11:22.246Z,26.68
2018-07-17T19:13:51.331Z,26.64
2018-07-17T19:16:20.509Z,26.65
2018-07-17T19:18:49.522Z,26.55
2018-07-17T19:21:18.919Z,26.57
2018-07-17T19:23:47.926Z,26.45
2018-07-17T19:26:17.082Z,26.31
2018-07-17T19:28:46.116Z,26.22
2018-07-17T19:31:15.264Z,26.13
2018-07-17T19:33:44.572Z,26.03
2018-07-17T19:36:13.383Z,26.00
2018-07-17T19:38:42.320Z,26.02
2018-07-17T19:41:11.346Z,25.99
2018-07-17T19:43:40.426Z,25.97
2018-07-17T19:46:09.592Z,25.97
2018-07-17T19:48:38.889Z,25.95
2018-07-17T19:51:08.483Z,25.91
2018-07-17T19:53:37.436Z,25.90
2018-07-17T19:56:07.275Z,25.83
2018-07-17T19:58:36.370Z,25.74
2018-07-17T20:01:05.617Z,25.73
2018-07-17T20:03:34.374Z,25.75
2018-07-17T20:06:03.488Z,25.73
2018-07-17T20:08:32.974Z,25.73
2018-07-17T20:11:02.034Z,25.71
2018-07-17T20:13:31.299Z,25.73
2018-07-17T20:16:00.535Z,25.68
2018-07-17T20:18:29.794Z,25.66
2018-07-17T20:20:59.035Z,25.68
2018-07-17T20:23:28.049Z,25.65
2018-07-17T20:25:57.175Z,25.61
2018-07-17T20:28:26.487Z,25.73
2018-07-17T20:30:55.775Z,25.74
2018-07-17T20:33:24.953Z,25.73
2018-07-17T20:35:54.075Z,25.71
2018-07-17T20:38:23.149Z,25.71
2018-07-17T20:40:52.100Z,25.68
2018-07-17T20:43:20.983Z,25.62
2018-07-17T20:45:50.276Z,25.62
2018-07-17T20:48:19.478Z,25.59
2018-07-17T20:50:48.391Z,25.60
2018-07-17T20:53:17.357Z,25.67
2018-07-17T20:55:46.527Z,25.74
2018-07-17T20:58:15.321Z,25.79
2018-07-17T21:00:44.658Z,25.73
2018-07-17T21:03:13.898Z,25.75
2018-07-17T21:05:43.046Z,25.74
2018-07-17T21:08:12.164Z,25.71
2018-07-17T21:10:41.333Z,25.63
2018-07-17T21:13:10.430Z,25.62
2018-07-17T21:15:39.398Z,25.57
2018-07-17T21:18:08.458Z,25.45
2018-07-17T21:20:37.694Z,25.34
2018-07-17T21:23:06.907Z,25.30
2018-07-17T21:25:36.236Z,25.32
2018-07-17T21:28:05.503Z,25.22
2018-07-17T21:30:34.348Z,25.19
2018-07-17T21:33:03.379Z,25.14
2018-07-17T21:35:32.479Z,25.15
2018-07-17T21:38:01.576Z,25.01
2018-07-17T21:40:30.762Z,24.98
2018-07-17T21:42:59.819Z,24.94
2018-07-17T21:45:28.614Z,24.85
2018-07-17T21:47:57.826Z,24.86
2018-07-17T21:50:27.047Z,24.89
2018-07-17T21:52:56.190Z,24.88
2018-07-17T21:55:25.452Z,24.89
2018-07-17T21:57:54.533Z,24.76
2018-07-17T22:00:23.730Z,24.62
2018-07-17T22:02:52.482Z,24.47
2018-07-17T22:05:21.674Z,24.44
2018-07-17T22:07:50.511Z,24.45
2018-07-17T22:10:19.815Z,24.47
2018-07-17T22:12:49.138Z,24.47
2018-07-17T22:15:18.372Z,24.44
2018-07-17T22:17:47.419Z,24.44
2018-07-17T22:20:16.368Z,24.41
2018-07-17T22:22:45.276Z,24.50
2018-07-17T22:25:14.363Z,24.52
2018-07-17T22:27:43.651Z,24.45
2018-07-17T22:30:12.866Z,24.42
2018-07-17T22:32:42.017Z,24.32
2018-07-17T22:35:11.177Z,24.28
2018-07-17T22:37:40.080Z,24.26
2018-07-17T22:40:09.081Z,24.26
2018-07-17T22:42:38.171Z,24.30
2018-07-17T22:45:07.839Z,24.40
2018-07-17T22:47:37.144Z,24.39
2018-07-17T22:50:06.484Z,24.36
2018-07-17T22:52:35.580Z,24.34
2018-07-17T22:55:04.394Z,24.36
2018-07-17T22:57:33.511Z,24.34
2018-07-17T23:00:02.575Z,24.36
2018-07-17T23:02:31.694Z,24.35
2018-07-17T23:05:00.805Z,24.29
2018-07-17T23:07:29.996Z,24.29
2018-07-17T23:09:58.787Z,24.29
2018-07-17T23:12:28.085Z,24.29
2018-07-17T23:14:57.330Z,24.25
2018-07-17T23:17:26.358Z,24.19
2018-07-17T23:19:55.535Z,24.10
2018-07-17T23:22:58.640Z,24.05
2018-07-17T23:25:28.814Z,23.98
2018-07-17T23:27:58.306Z,23.95
2018-07-17T23:30:27.618Z,23.92
2018-07-17T23:32:56.614Z,23.92
2018-07-17T23:35:26.307Z,23.85
2018-07-17T23:37:55.509Z,23.77
2018-07-17T23:40:24.634Z,23.78
2018-07-17T23:42:53.625Z,23.75
2018-07-17T23:45:22.756Z,23.74
2018-07-17T23:47:51.869Z,23.74
2018-07-17T23:50:20.847Z,23.70
2018-07-17T23:52:49.819Z,23.66
2018-07-17T23:55:18.926Z,23.62
2018-07-17T23:57:48.026Z,23.57
